Terminal Aerodrome Forecast
Issued by NWS Greer, SC

Home | Current Version | Previous Version | Text Only | Print | Product List | Glossary On
Versions: 1 2 3 4 5 6 7 8 9 10 11 12 13 14 15 16 17 18 19 20 21 22 23 24 25 26 27 28 29 30 31 32 33 34 35 36 37 38 39 40 41 42 43 44 45 46 47 48 49 50
000
FTUS42 KGSP 231100
TAFAVL
TAF
KAVL 231128Z 2312/2412 00000KT 1/4SM FG OVC002
      TEMPO 2312/2314 23004KT 3SM BR BKN007
     FM231400 26003KT 4SM BR BKN007
     FM231600 26003KT P6SM VCSH BKN040
      TEMPO 2318/2321 VRB10KT 4SM TSRA BKN040CB
     FM240300 33005KT 5SM BR BKN110
     FM240900 00000KT 1/2SM FG BKN002=

USA.gov is the U.S. government's official web portal to all federal, state and local government web resources and services.